Time;durP1;ratioP1;P1;durP2;ratioP2;P2;SDS_P1;SDS_P2;PMS_P1;PMS_P2;Temp;Humidity;BMP_temperature;BMP_pressure;BME280_temperature;BME280_humidity;BME280_pressure;Samples;Min_cycle;Max_cycle;Signal;HPM_P1;HPM_P2
2023/06/08 00:00:20;;;;;;;8.95;5.45;;;;;;;9.48;100.00;101358.22;6219633;23;20011;-81
2023/06/08 00:02:46;;;;;;;8.63;4.78;;;;;;;9.46;100.00;101353.00;6194993;23;20496;-81
2023/06/08 00:05:16;;;;;;;7.72;4.32;;;;;;;9.33;100.00;101348.00;6194705;23;20015;-81
2023/06/08 00:07:42;;;;;;;10.98;5.82;;;;;;;9.39;100.00;101349.22;6220596;23;20035;-81
2023/06/08 00:10:11;;;;;;;10.63;5.72;;;;;;;9.41;100.00;101341.88;6194655;23;20016;-80
2023/06/08 00:12:37;;;;;;;11.00;5.45;;;;;;;9.49;100.00;101343.78;6194116;23;20018;-81
2023/06/08 00:15:07;;;;;;;7.50;4.55;;;;;;;9.50;100.00;101340.97;6194125;23;20008;-81
2023/06/08 00:17:35;;;;;;;9.20;5.25;;;;;;;9.49;100.00;101344.63;6194749;23;20448;-81
2023/06/08 00:20:00;;;;;;;13.13;6.35;;;;;;;9.43;100.00;101334.53;6195067;23;20011;-84
2023/06/08 00:22:27;;;;;;;7.85;4.28;;;;;;;9.36;100.00;101338.81;6194659;23;20333;-83
2023/06/08 00:24:53;;;;;;;13.98;9.05;;;;;;;9.35;100.00;101346.03;6219740;23;20106;-82
2023/06/08 00:27:18;;;;;;;13.27;6.88;;;;;;;9.33;100.00;101333.75;6194587;23;20008;-82
2023/06/08 00:29:44;;;;;;;6.50;4.50;;;;;;;9.26;100.00;101330.81;6219477;23;20011;-82
2023/06/08 00:32:10;;;;;;;7.72;6.22;;;;;;;9.22;100.00;101327.63;6244613;23;20005;-83
2023/06/08 00:34:35;;;;;;;9.68;6.07;;;;;;;9.28;100.00;101328.00;6194528;23;20087;-82
2023/06/08 00:37:01;;;;;;;4.82;3.53;;;;;;;9.27;100.00;101334.38;6194574;23;20016;-82
2023/06/08 00:39:27;;;;;;;11.90;6.18;;;;;;;9.28;100.00;101330.69;6193830;23;20012;-82
2023/06/08 00:41:52;;;;;;;14.82;7.22;;;;;;;9.07;100.00;101312.19;6194554;23;20008;-82
2023/06/08 00:44:18;;;;;;;9.82;5.60;;;;;;;9.15;100.00;101331.06;6194662;23;20000;-82
2023/06/08 00:46:44;;;;;;;8.32;5.65;;;;;;;9.07;100.00;101318.41;6220749;23;20004;-83
2023/06/08 00:49:15;;;;;;;5.68;4.00;;;;;;;9.01;100.00;101314.50;6221311;23;20015;-82
2023/06/08 00:51:41;;;;;;;5.00;3.92;;;;;;;9.00;100.00;101318.19;6246877;23;20035;-82
2023/06/08 00:54:10;;;;;;;11.05;7.38;;;;;;;9.06;100.00;101318.56;6196269;23;20507;-82
2023/06/08 00:56:36;;;;;;;13.35;7.00;;;;;;;9.11;100.00;101319.78;6246412;23;20091;-82
2023/06/08 00:59:03;;;;;;;9.27;5.78;;;;;;;9.08;100.00;101317.44;6221315;23;20034;-81
2023/06/08 01:01:29;;;;;;;9.50;6.38;;;;;;;9.10;100.00;101315.41;6196281;23;20440;-82
2023/06/08 01:04:07;;;;;;;10.50;6.18;;;;;;;9.12;100.00;101307.22;6221130;23;20004;-81
2023/06/08 01:06:35;;;;;;;7.22;5.10;;;;;;;9.13;100.00;101314.25;6246894;23;20429;-82
2023/06/08 01:09:45;;;;;;;9.77;6.18;;;;;;;9.16;100.00;101300.56;6221282;23;20015;-82
2023/06/08 01:12:32;;;;;;;13.75;7.57;;;;;;;9.17;100.00;101308.44;6187473;23;20008;-82
2023/06/08 01:15:25;;;;;;;11.75;5.97;;;;;;;9.12;100.00;101301.84;6221022;23;20046;-82
2023/06/08 01:17:57;;;;;;;8.45;5.63;;;;;;;9.14;100.00;101297.19;6196627;23;20018;-81
2023/06/08 01:20:44;;;;;;;9.60;5.88;;;;;;;9.24;100.00;101306.84;6246762;23;20012;-82
2023/06/08 01:23:34;;;;;;;11.70;5.32;;;;;;;9.25;100.00;101299.63;6246269;23;20082;-82
2023/06/08 01:26:02;;;;;;;5.47;4.60;;;;;;;9.18;100.00;101299.41;6222205;23;20101;-82
2023/06/08 01:28:30;;;;;;;11.93;6.38;;;;;;;9.19;100.00;101300.25;6221240;23;20001;-82
2023/06/08 01:31:01;;;;;;;12.63;7.03;;;;;;;9.19;100.00;101286.84;6246494;23;20004;-81
2023/06/08 01:33:28;;;;;;;7.35;4.65;;;;;;;9.16;100.00;101292.53;6172839;23;20019;-81
2023/06/08 01:36:00;;;;;;;11.77;7.15;;;;;;;8.79;100.00;101232.66;6195974;23;20398;-82
2023/06/08 01:38:55;;;;;;;9.27;6.03;;;;;;;9.13;100.00;101284.75;6196022;23;20008;-82
2023/06/08 01:41:24;;;;;;;11.38;6.88;;;;;;;9.16;100.00;101285.31;6220958;23;20428;-82
2023/06/08 01:43:51;;;;;;;13.63;7.13;;;;;;;9.20;100.00;101285.84;6195938;23;20004;-82
2023/06/08 01:46:18;;;;;;;12.52;7.10;;;;;;;9.16;100.00;101284.47;6196014;23;20015;-83
2023/06/08 01:48:46;;;;;;;11.05;6.65;;;;;;;9.19;100.00;101287.69;6220936;23;20008;-82
2023/06/08 01:51:13;;;;;;;10.65;6.53;;;;;;;9.17;100.00;101280.78;6245953;23;20000;-82
2023/06/08 01:53:39;;;;;;;14.50;6.68;;;;;;;9.13;100.00;101280.25;6195669;23;20008;-83
2023/06/08 01:56:05;;;;;;;13.40;6.03;;;;;;;9.15;100.00;101278.25;6195891;23;20014;-83
2023/06/08 01:58:30;;;;;;;13.38;7.18;;;;;;;9.15;100.00;101274.72;6195604;23;20012;-84
2023/06/08 02:00:56;;;;;;;11.77;7.65;;;;;;;9.17;100.00;101270.03;6195630;23;20435;-82
2023/06/08 02:03:22;;;;;;;13.98;8.25;;;;;;;9.17;100.00;101268.19;6195721;23;20012;-83
2023/06/08 02:05:47;;;;;;;13.43;10.80;;;;;;;9.31;100.00;101274.84;6195827;23;20004;-82
2023/06/08 02:08:13;;;;;;;11.63;5.93;;;;;;;9.42;100.00;101269.25;6195734;23;20015;-82
2023/06/08 02:10:39;;;;;;;13.57;7.43;;;;;;;9.37;100.00;101265.38;6195650;23;20460;-82
2023/06/08 02:13:04;;;;;;;8.32;6.43;;;;;;;9.24;100.00;101271.97;6220815;23;20004;-83
2023/06/08 02:15:30;;;;;;;9.18;5.53;;;;;;;9.32;100.00;101267.66;6195678;23;20027;-82
2023/06/08 02:17:59;;;;;;;9.38;5.13;;;;;;;9.27;100.00;101262.75;6195682;23;20031;-83
2023/06/08 02:20:25;;;;;;;12.98;5.63;;;;;;;9.25;100.00;101259.38;6196232;23;20038;-82
2023/06/08 02:22:51;;;;;;;8.90;5.95;;;;;;;9.16;100.00;101253.13;6245663;23;20038;-83
2023/06/08 02:25:17;;;;;;;11.02;6.63;;;;;;;9.10;100.00;101248.34;6195648;23;20015;-82
2023/06/08 02:27:44;;;;;;;9.40;5.55;;;;;;;9.23;100.00;101272.09;6220688;23;20020;-82
2023/06/08 02:30:11;;;;;;;12.02;6.22;;;;;;;9.25;100.00;101262.06;6195742;23;20028;-82
2023/06/08 02:32:41;;;;;;;7.38;4.53;;;;;;;9.13;100.00;101249.88;6195638;23;20035;-82
2023/06/08 02:35:07;;;;;;;9.43;5.45;;;;;;;9.10;100.00;101259.06;6221016;23;20328;-83
2023/06/08 02:37:36;;;;;;;10.68;6.38;;;;;;;9.10;100.00;101253.72;6195432;23;20310;-84
2023/06/08 02:40:04;;;;;;;12.88;6.22;;;;;;;9.16;100.00;101250.44;6245802;23;20409;-82
2023/06/08 02:42:30;;;;;;;9.00;6.43;;;;;;;9.16;100.00;101247.75;6245796;23;20036;-83
2023/06/08 02:44:55;;;;;;;10.48;6.93;;;;;;;9.19;100.00;101246.59;6245804;23;20007;-83
2023/06/08 02:47:21;;;;;;;12.02;6.88;;;;;;;9.18;100.00;101250.25;6195632;23;20058;-83
2023/06/08 02:49:47;;;;;;;9.57;5.05;;;;;;;9.17;100.00;101252.09;6195426;23;20439;-83
2023/06/08 02:52:12;;;;;;;11.80;9.27;;;;;;;9.19;100.00;101228.66;6195373;23;20046;-83
2023/06/08 02:54:38;;;;;;;7.68;5.03;;;;;;;9.20;100.00;101232.16;6195254;23;20428;-83
2023/06/08 02:57:05;;;;;;;14.82;9.32;;;;;;;9.19;100.00;101236.69;6195295;23;20095;-82
2023/06/08 02:59:31;;;;;;;8.40;5.00;;;;;;;9.13;100.00;101240.00;6195232;23;20008;-83
2023/06/08 03:01:57;;;;;;;10.88;6.18;;;;;;;9.08;100.00;101220.84;6195203;23;20044;-82
2023/06/08 03:04:25;;;;;;;11.05;9.13;;;;;;;9.09;100.00;101230.56;6245562;23;20083;-83
2023/06/08 03:06:53;;;;;;;5.00;4.00;;;;;;;9.04;100.00;101222.16;6195245;23;20007;-84
2023/06/08 03:09:21;;;;;;;10.27;5.20;;;;;;;9.00;100.00;101226.16;6245120;23;20008;-83
2023/06/08 03:11:47;;;;;;;12.80;8.73;;;;;;;9.03;100.00;101229.34;6220202;23;20087;-84
2023/06/08 03:14:13;;;;;;;10.98;6.93;;;;;;;9.05;100.00;101213.13;6194642;23;20011;-84
2023/06/08 03:16:38;;;;;;;11.20;6.30;;;;;;;9.09;100.00;101216.31;6220269;23;20016;-84
2023/06/08 03:19:04;;;;;;;12.75;6.45;;;;;;;9.15;100.00;101224.56;6194983;23;20432;-84
2023/06/08 03:21:30;;;;;;;11.98;8.77;;;;;;;9.15;100.00;101224.56;6194992;23;20007;-83
2023/06/08 03:23:55;;;;;;;16.30;11.18;;;;;;;9.14;100.00;101217.53;6195025;23;20053;-84
2023/06/08 03:26:21;;;;;;;12.63;5.95;;;;;;;9.17;100.00;101216.38;6194918;23;20058;-82
2023/06/08 03:28:47;;;;;;;8.35;4.45;;;;;;;9.16;100.00;101215.56;6194890;23;20016;-84
2023/06/08 03:31:13;;;;;;;13.32;5.63;;;;;;;9.10;100.00;101209.94;6219930;23;20039;-84
2023/06/08 03:33:39;;;;;;;9.25;6.40;;;;;;;9.09;100.00;101219.00;6194763;23;20490;-84
2023/06/08 03:36:06;;;;;;;6.93;4.20;;;;;;;9.15;100.00;101221.06;6194866;23;20065;-84
2023/06/08 03:38:32;;;;;;;9.90;5.50;;;;;;;9.13;100.00;101218.56;6195029;23;20146;-82
2023/06/08 03:40:57;;;;;;;8.70;5.10;;;;;;;9.04;100.00;101224.81;6194863;23;20004;-83
2023/06/08 03:43:23;;;;;;;14.32;6.25;;;;;;;9.11;100.00;101222.38;6194781;23;20014;-83
2023/06/08 03:45:49;;;;;;;12.80;7.32;;;;;;;9.11;100.00;101215.16;6245199;23;20008;-83
2023/06/08 03:48:15;;;;;;;8.15;5.80;;;;;;;9.05;100.00;101213.13;6194803;23;20019;-82
2023/06/08 03:50:43;;;;;;;12.18;7.18;;;;;;;9.07;100.00;101205.72;6194826;23;20011;-83
2023/06/08 03:53:12;;;;;;;8.90;6.90;;;;;;;9.08;100.00;101207.44;6220425;23;20011;-82
2023/06/08 03:55:38;;;;;;;11.45;7.22;;;;;;;9.06;100.00;101206.75;6219703;23;20061;-83
2023/06/08 03:58:04;;;;;;;12.60;7.82;;;;;;;9.09;100.00;101201.06;6220106;23;20000;-82
2023/06/08 04:00:29;;;;;;;12.00;6.60;;;;;;;9.10;100.00;101205.41;6219378;23;20022;-83
2023/06/08 04:02:56;;;;;;;9.18;6.38;;;;;;;9.24;100.00;101202.19;6194711;23;20008;-84
2023/06/08 04:05:22;;;;;;;20.13;9.57;;;;;;;9.25;100.00;101203.03;6244887;23;20008;-83
2023/06/08 04:07:50;;;;;;;11.05;6.22;;;;;;;9.22;100.00;101201.50;6194781;23;20102;-83
2023/06/08 04:10:16;;;;;;;11.40;5.50;;;;;;;9.17;100.00;101197.59;6220150;23;20040;-83
2023/06/08 04:12:42;;;;;;;9.65;6.10;;;;;;;9.22;100.00;101196.13;6194703;23;20008;-83
2023/06/08 04:15:08;;;;;;;11.52;6.00;;;;;;;9.21;100.00;101190.94;6194555;23;20115;-83
2023/06/08 04:17:34;;;;;;;13.85;6.80;;;;;;;9.16;100.00;101193.25;6194656;23;20087;-84
2023/06/08 04:20:00;;;;;;;14.02;5.50;;;;;;;9.15;100.00;101195.06;6194750;23;20008;-83
2023/06/08 04:22:27;;;;;;;12.00;6.32;;;;;;;9.13;100.00;101182.81;6196557;23;20062;-83
2023/06/08 04:24:52;;;;;;;11.00;7.72;;;;;;;9.17;100.00;101179.66;6221997;23;20034;-82
2023/06/08 04:27:19;;;;;;;7.78;5.80;;;;;;;9.22;100.00;101188.09;6196703;23;20012;-83
2023/06/08 04:29:45;;;;;;;7.93;4.07;;;;;;;9.25;100.00;101186.94;6221829;23;20436;-83
2023/06/08 04:32:11;;;;;;;15.82;8.55;;;;;;;9.27;100.00;101189.47;6196424;23;20010;-82
2023/06/08 04:34:37;;;;;;;14.65;7.53;;;;;;;9.27;100.00;101189.47;6221767;23;20008;-83
2023/06/08 04:37:03;;;;;;;11.23;7.53;;;;;;;9.25;100.00;101181.56;6196706;23;20451;-84
2023/06/08 04:39:29;;;;;;;8.73;5.60;;;;;;;9.27;100.00;101190.31;6196543;23;20012;-83
2023/06/08 04:41:55;;;;;;;8.32;5.43;;;;;;;9.24;100.00;101186.09;6196648;23;20336;-82
2023/06/08 04:44:23;;;;;;;13.95;7.50;;;;;;;9.19;100.00;101183.03;6196460;23;20012;-83
2023/06/08 04:46:49;;;;;;;11.32;7.40;;;;;;;9.29;100.00;101192.81;6196713;23;20078;-83
2023/06/08 04:49:16;;;;;;;11.40;6.00;;;;;;;9.29;100.00;101190.13;6221457;23;20008;-83
2023/06/08 04:51:46;;;;;;;10.45;5.82;;;;;;;9.34;100.00;101186.00;6196736;23;20042;-83
2023/06/08 04:54:15;;;;;;;5.22;4.72;;;;;;;9.40;100.00;101182.69;6197420;23;20042;-83
2023/06/08 04:56:41;;;;;;;10.88;5.47;;;;;;;9.51;100.00;101180.75;6247560;23;20004;-83
2023/06/08 04:59:10;;;;;;;10.38;7.07;;;;;;;9.59;100.00;101170.88;6260742;23;20035;-83
2023/06/08 05:01:36;;;;;;;15.27;10.77;;;;;;;9.69;100.00;101184.19;6211560;23;20444;-82
2023/06/08 05:04:02;;;;;;;11.75;6.15;;;;;;;9.76;100.00;101179.03;6197684;23;20019;-83
2023/06/08 05:06:28;;;;;;;12.25;7.47;;;;;;;9.84;100.00;101181.75;6222003;23;20606;-83
2023/06/08 05:08:54;;;;;;;10.23;7.53;;;;;;;9.97;100.00;101175.94;6196341;23;20012;-85
2023/06/08 05:11:20;;;;;;;15.85;8.23;;;;;;;10.13;100.00;101171.47;6196386;23;20340;-83
2023/06/08 05:13:46;;;;;;;6.43;4.35;;;;;;;10.37;100.00;101179.78;6196207;23;20000;-83
2023/06/08 05:16:12;;;;;;;11.80;6.75;;;;;;;10.43;100.00;101169.22;6196349;23;20019;-83
2023/06/08 05:18:37;;;;;;;9.85;6.78;;;;;;;10.48;100.00;101176.81;6196114;23;20425;-83
2023/06/08 05:21:03;;;;;;;11.38;6.13;;;;;;;10.48;100.00;101164.19;6196157;23;20416;-83
2023/06/08 05:23:29;;;;;;;7.80;5.35;;;;;;;10.57;100.00;101163.19;6196001;23;20043;-83
2023/06/08 05:25:55;;;;;;;14.65;5.68;;;;;;;10.69;100.00;101161.03;6196062;23;20010;-83
2023/06/08 05:28:20;;;;;;;7.55;5.35;;;;;;;10.77;100.00;101165.59;6195683;23;20034;-84
2023/06/08 05:30:46;;;;;;;9.02;5.50;;;;;;;10.88;100.00;101156.34;6195771;23;20445;-83
2023/06/08 05:33:12;;;;;;;6.65;4.97;;;;;;;11.08;100.00;101164.91;6220517;23;20364;-84
2023/06/08 05:35:37;;;;;;;7.97;6.00;;;;;;;11.31;100.00;101171.28;6195908;23;20008;-84
2023/06/08 05:38:03;;;;;;;10.75;5.82;;;;;;;11.54;100.00;101165.19;6196112;23;20086;-83
2023/06/08 05:40:29;;;;;;;8.82;5.90;;;;;;;11.94;100.00;101166.09;6195978;23;20019;-85
2023/06/08 05:42:55;;;;;;;8.05;6.00;;;;;;;12.08;100.00;101159.94;6195836;23;20015;-85
2023/06/08 05:45:20;;;;;;;8.45;6.25;;;;;;;12.21;100.00;101162.91;6195866;23;20004;-84
2023/06/08 05:47:46;;;;;;;11.70;5.03;;;;;;;12.19;100.00;101167.63;6220603;23;20027;-84
2023/06/08 05:50:12;;;;;;;9.60;5.90;;;;;;;12.26;100.00;101171.31;6195736;23;20015;-85
2023/06/08 05:52:37;;;;;;;10.70;7.70;;;;;;;12.56;100.00;101176.88;6195774;23;20012;-84
2023/06/08 05:55:04;;;;;;;6.20;4.70;;;;;;;12.66;100.00;101161.28;6195622;23;20008;-84
2023/06/08 05:57:30;;;;;;;7.75;6.15;;;;;;;13.15;100.00;101158.19;6195988;23;20095;-83
2023/06/08 05:59:56;;;;;;;8.88;4.65;;;;;;;13.43;94.88;101167.59;6195800;23;20020;-84
2023/06/08 06:02:21;;;;;;;4.93;3.22;;;;;;;13.87;94.34;101156.78;6171023;23;20428;-84
2023/06/08 06:04:50;;;;;;;6.40;4.00;;;;;;;14.22;90.33;101154.31;6170754;23;20008;-84
2023/06/08 06:07:18;;;;;;;6.95;4.68;;;;;;;14.34;90.07;101163.59;6171224;23;20115;-82
2023/06/08 06:09:43;;;;;;;5.22;3.53;;;;;;;15.27;85.80;101159.09;6171140;23;20000;-84
2023/06/08 06:12:09;;;;;;;7.65;5.00;;;;;;;15.82;78.24;101159.25;6170701;23;20381;-83
2023/06/08 06:14:37;;;;;;;7.68;3.97;;;;;;;16.03;74.55;101117.63;6170209;23;20034;-83
2023/06/08 06:17:04;;;;;;;10.43;4.93;;;;;;;16.63;71.81;101161.22;6220545;23;20100;-84
2023/06/08 06:19:33;;;;;;;7.15;4.85;;;;;;;16.70;70.36;101165.63;6220554;23;20004;-84
2023/06/08 06:21:58;;;;;;;7.25;4.70;;;;;;;16.96;68.48;101166.72;6171118;23;20023;-84
2023/06/08 06:24:24;;;;;;;6.82;4.82;;;;;;;17.24;67.99;101162.97;6170797;23;20008;-84
2023/06/08 06:26:50;;;;;;;8.13;4.63;;;;;;;17.63;65.96;101156.66;6195375;23;20432;-84
2023/06/08 06:29:16;;;;;;;5.43;4.40;;;;;;;17.91;63.93;101159.09;6170630;23;20440;-84
2023/06/08 06:31:41;;;;;;;4.22;3.30;;;;;;;18.05;63.08;101165.34;6195546;23;20020;-84
2023/06/08 06:34:07;;;;;;;5.15;3.90;;;;;;;18.21;63.61;101159.41;6170481;23;20004;-84
2023/06/08 06:36:33;;;;;;;9.95;5.03;;;;;;;18.36;63.93;101159.09;6170404;23;20054;-85
2023/06/08 06:38:58;;;;;;;4.43;3.63;;;;;;;18.86;60.55;101153.78;6170570;23;20023;-84
2023/06/08 06:41:25;;;;;;;6.57;4.18;;;;;;;19.27;60.57;101160.59;6170393;23;20008;-84
2023/06/08 06:43:50;;;;;;;7.50;5.28;;;;;;;19.57;58.25;101156.31;6170523;23;20004;-84
2023/06/08 06:46:19;;;;;;;8.52;4.88;;;;;;;19.76;55.46;101167.03;6170497;23;20008;-84
2023/06/08 06:48:45;;;;;;;5.90;3.97;;;;;;;19.94;54.37;101146.28;6171171;23;20008;-84
2023/06/08 06:51:11;;;;;;;6.10;3.97;;;;;;;20.26;55.33;101173.41;6170504;23;20054;-84
2023/06/08 06:53:37;;;;;;;7.38;5.63;;;;;;;20.32;52.42;101162.41;6170718;23;20008;-84
2023/06/08 06:56:03;;;;;;;9.55;5.45;;;;;;;20.24;51.69;101159.13;6170417;23;20034;-82
2023/06/08 06:58:29;;;;;;;8.38;5.22;;;;;;;20.43;54.22;101171.69;6170906;23;19996;-84
2023/06/08 07:00:55;;;;;;;8.95;5.38;;;;;;;20.48;51.50;101168.25;6187717;23;20012;-82
2023/06/08 07:03:21;;;;;;;6.60;4.53;;;;;;;20.76;52.24;101173.16;6219635;23;20058;-83
2023/06/08 07:05:49;;;;;;;6.47;4.43;;;;;;;20.91;51.83;101162.63;6248412;23;20340;-84
2023/06/08 07:08:15;;;;;;;12.48;5.00;;;;;;;21.24;51.71;101170.25;6195108;23;20529;-83
2023/06/08 07:10:40;;;;;;;7.57;5.30;;;;;;;21.00;50.19;101160.38;6195086;23;20035;-82
2023/06/08 07:13:06;;;;;;;8.63;4.95;;;;;;;20.76;52.19;101163.03;6195054;23;20019;-83
2023/06/08 07:15:32;;;;;;;5.50;4.05;;;;;;;20.70;51.53;101158.53;6220013;23;20482;-82
2023/06/08 07:17:58;;;;;;;6.55;4.55;;;;;;;20.68;51.54;101154.34;6194960;23;20004;-83
2023/06/08 07:20:23;;;;;;;7.25;4.90;;;;;;;20.80;51.92;101153.31;6194986;23;20008;-83
2023/06/08 07:22:49;;;;;;;7.85;5.57;;;;;;;20.95;52.10;101160.22;6194990;23;20070;-83
2023/06/08 07:25:15;;;;;;;5.72;3.55;;;;;;;21.22;50.68;101164.22;6194952;23;20451;-83
2023/06/08 07:27:41;;;;;;;6.40;5.72;;;;;;;21.41;49.17;101162.22;6195007;23;20031;-84
2023/06/08 07:30:07;;;;;;;5.53;3.58;;;;;;;21.69;49.73;101164.22;6194986;23;20040;-83
2023/06/08 07:32:33;;;;;;;6.70;5.55;;;;;;;22.21;48.22;101155.19;6220116;23;20008;-84
2023/06/08 07:34:59;;;;;;;5.90;5.00;;;;;;;22.55;47.83;101166.25;6219951;23;20015;-84
2023/06/08 07:37:25;;;;;;;6.32;5.32;;;;;;;22.52;46.79;101155.78;6194979;23;20432;-83
2023/06/08 07:39:51;;;;;;;9.68;4.75;;;;;;;22.66;47.90;101151.66;6195016;23;20015;-84
2023/06/08 07:42:16;;;;;;;6.93;5.63;;;;;;;23.35;46.29;101147.88;6194852;23;20432;-82
2023/06/08 07:44:42;;;;;;;6.95;5.07;;;;;;;23.76;44.36;101148.47;6219870;23;20310;-83
2023/06/08 07:47:08;;;;;;;4.68;4.07;;;;;;;23.99;43.57;101153.72;6194747;23;20432;-83
2023/06/08 07:49:33;;;;;;;5.68;4.97;;;;;;;23.88;43.38;101154.69;6219671;23;20101;-81
2023/06/08 07:52:07;;;;;;;6.45;4.63;;;;;;;23.81;43.65;101148.53;6193972;23;20012;-80
2023/06/08 07:54:33;;;;;;;6.38;4.70;;;;;;;23.61;44.35;101152.66;6195580;23;20427;-78
2023/06/08 07:57:01;;;;;;;6.05;4.55;;;;;;;23.91;43.84;101154.19;6194516;23;20012;-77
2023/06/08 07:59:28;;;;;;;7.35;4.60;;;;;;;23.96;44.04;101159.72;6195079;23;20031;-79
2023/06/08 08:01:54;;;;;;;4.43;3.03;;;;;;;23.94;43.90;101167.41;6193939;23;20012;-79
2023/06/08 08:04:20;;;;;;;7.10;5.00;;;;;;;24.40;43.67;101156.97;6194584;23;20008;-78
2023/06/08 08:06:46;;;;;;;5.65;4.68;;;;;;;23.77;43.67;101156.47;6194107;23;20004;-79
2023/06/08 08:09:11;;;;;;;6.30;4.70;;;;;;;24.50;43.59;101164.50;6194778;23;20008;-78
2023/06/08 08:11:37;;;;;;;6.80;4.80;;;;;;;24.55;42.45;101159.06;6194704;23;20447;-80
2023/06/08 08:14:09;;;;;;;5.18;3.97;;;;;;;24.90;43.59;101158.59;6194573;23;20000;-78
2023/06/08 08:16:38;;;;;;;7.05;4.70;;;;;;;25.50;41.56;101155.72;6196015;23;20074;-80
2023/06/08 08:19:04;;;;;;;6.95;4.80;;;;;;;25.37;41.36;101146.00;6219720;23;20011;-78
2023/06/08 08:21:29;;;;;;;10.00;5.38;;;;;;;24.17;44.48;101155.31;6194658;23;20006;-78
2023/06/08 08:23:55;;;;;;;9.88;5.38;;;;;;;23.21;44.84;101153.72;6194687;23;20011;-78
2023/06/08 08:26:21;;;;;;;7.38;5.65;;;;;;;22.87;46.85;101141.88;6194645;23;20432;-78
2023/06/08 08:28:47;;;;;;;9.43;7.28;;;;;;;23.20;45.39;101149.28;6219777;23;20421;-78
2023/06/08 08:31:13;;;;;;;7.00;4.47;;;;;;;22.33;48.99;101150.53;6219556;23;20008;-78
2023/06/08 08:33:39;;;;;;;10.60;6.55;;;;;;;21.53;50.66;101148.53;6219524;23;20098;-77
2023/06/08 08:36:05;;;;;;;6.60;5.72;;;;;;;21.10;51.77;101151.59;6194502;23;20012;-78
2023/06/08 08:38:31;;;;;;;8.85;6.10;;;;;;;21.08;53.62;101143.59;6194376;23;20460;-78
2023/06/08 08:41:04;;;;;;;5.68;5.07;;;;;;;22.19;51.88;101146.38;6194481;23;19996;-77
2023/06/08 08:43:37;;;;;;;8.68;5.18;;;;;;;23.17;50.00;101144.31;6244789;23;20058;-78
2023/06/08 08:46:07;;;;;;;9.93;5.72;;;;;;;24.32;47.87;101157.44;6219637;23;20070;-77
2023/06/08 08:48:35;;;;;;;8.52;6.07;;;;;;;24.79;45.23;101141.16;6195571;23;20117;-77
2023/06/08 08:51:01;;;;;;;7.50;6.00;;;;;;;24.76;44.89;101149.09;6219746;23;20503;-78
2023/06/08 08:53:30;;;;;;;5.43;4.65;;;;;;;24.09;45.65;101137.38;6219559;23;20031;-79
2023/06/08 08:55:57;;;;;;;9.75;6.18;;;;;;;22.55;48.86;101138.88;6194957;23;20456;-78
2023/06/08 08:58:23;;;;;;;8.43;6.05;;;;;;;21.62;52.44;101141.63;6194367;23;20004;-78
2023/06/08 09:00:49;;;;;;;9.25;6.72;;;;;;;21.04;55.31;101139.69;6194180;23;20008;-77
2023/06/08 09:03:17;;;;;;;10.27;6.50;;;;;;;20.82;55.54;101145.69;6194360;23;20008;-77
2023/06/08 09:05:45;;;;;;;7.70;5.95;;;;;;;20.69;57.41;101137.72;6194771;23;20015;-76
2023/06/08 09:08:11;;;;;;;11.40;5.95;;;;;;;20.54;57.55;101138.16;6195008;23;20050;-78
2023/06/08 09:10:37;;;;;;;8.50;6.75;;;;;;;20.55;60.20;101136.25;6195812;23;20432;-77
2023/06/08 09:13:02;;;;;;;12.65;6.57;;;;;;;20.89;57.20;101133.84;6196014;23;20011;-77
2023/06/08 09:15:32;;;;;;;8.65;5.78;;;;;;;21.35;57.82;101140.41;6195384;23;20440;-79
2023/06/08 09:18:02;;;;;;;8.15;5.68;;;;;;;22.11;54.04;101139.34;6220285;23;20008;-81
2023/06/08 09:20:32;;;;;;;10.70;7.35;;;;;;;22.61;51.70;101137.88;6244446;23;20004;-79
2023/06/08 09:23:15;;;;;;;6.28;5.22;;;;;;;23.62;50.46;101139.75;6221333;23;20004;-78
2023/06/08 09:25:41;;;;;;;7.43;5.10;;;;;;;24.31;48.80;101120.84;6221201;23;20012;-78
2023/06/08 09:28:26;;;;;;;12.13;5.57;;;;;;;25.04;46.23;101109.44;6220895;23;20000;-78
2023/06/08 09:30:53;;;;;;;8.20;6.20;;;;;;;26.09;44.97;101123.28;6221279;23;20038;-78
2023/06/08 09:33:20;;;;;;;9.35;5.65;;;;;;;26.77;43.09;101124.25;6195903;23;20298;-79
2023/06/08 09:35:58;;;;;;;7.93;4.43;;;;;;;27.45;42.00;101134.97;6220401;23;20016;-81
2023/06/08 09:38:27;;;;;;;7.82;6.95;;;;;;;28.12;39.06;101116.22;6220510;23;20015;-78
2023/06/08 09:41:16;;;;;;;11.18;6.20;;;;;;;28.62;39.16;101122.56;6221668;23;20001;-79
2023/06/08 09:43:45;;;;;;;8.25;5.30;;;;;;;27.53;40.01;101123.34;6245751;23;20436;-79
2023/06/08 09:46:15;;;;;;;9.65;6.50;;;;;;;27.27;41.46;101117.06;6195797;23;20006;-79
2023/06/08 09:48:56;;;;;;;7.60;4.20;;;;;;;25.93;43.53;101101.44;6222060;23;20008;-80
2023/06/08 09:51:22;;;;;;;7.30;4.32;;;;;;;26.08;43.49;101107.81;6195983;23;20019;-78
2023/06/08 09:53:52;;;;;;;9.50;5.70;;;;;;;26.36;42.85;101099.34;6220721;23;20054;-78
2023/06/08 09:56:18;;;;;;;7.35;5.20;;;;;;;26.44;43.43;101115.38;6220330;23;20310;-79
2023/06/08 09:58:45;;;;;;;10.80;6.38;;;;;;;25.95;44.38;101113.03;6220293;23;20010;-79
2023/06/08 10:01:12;;;;;;;7.53;6.25;;;;;;;25.82;44.53;101104.13;6195456;23;20332;-79
2023/06/08 10:03:40;;;;;;;6.53;5.63;;;;;;;25.48;44.86;101092.66;6195506;23;20445;-79
2023/06/08 10:06:09;;;;;;;7.20;4.63;;;;;;;25.37;45.20;101100.03;6195592;23;20004;-81
2023/06/08 10:08:37;;;;;;;8.10;4.50;;;;;;;25.48;46.04;101097.34;6195873;23;20102;-78
2023/06/08 10:11:03;;;;;;;7.35;5.93;;;;;;;25.43;45.31;101090.75;6195505;23;20004;-76
2023/06/08 10:13:30;;;;;;;7.22;5.70;;;;;;;25.36;47.21;101086.56;6220300;23;20008;-77
2023/06/08 10:15:59;;;;;;;10.90;5.40;;;;;;;25.65;45.58;101089.75;6219845;23;20004;-79
2023/06/08 10:18:25;;;;;;;8.73;6.07;;;;;;;26.04;43.58;101078.34;6245749;23;20079;-77
2023/06/08 10:20:52;;;;;;;12.65;6.47;;;;;;;26.45;44.47;101086.69;6195458;23;20015;-78
2023/06/08 10:23:18;;;;;;;7.82;6.20;;;;;;;27.03;42.53;101089.19;6195377;23;20019;-80
2023/06/08 10:25:45;;;;;;;8.50;4.93;;;;;;;28.27;39.52;101077.41;6195389;23;20012;-79
2023/06/08 10:28:14;;;;;;;8.52;5.47;;;;;;;28.70;38.32;101067.41;6195741;23;20456;-78
2023/06/08 10:30:41;;;;;;;9.60;5.57;;;;;;;29.13;36.88;101080.59;6171478;23;20448;-78
2023/06/08 10:33:11;;;;;;;9.93;5.50;;;;;;;29.40;38.31;101068.97;6195485;23;20433;-78
2023/06/08 10:35:40;;;;;;;6.53;4.65;;;;;;;29.83;36.76;101066.25;6245612;23;20008;-78
2023/06/08 10:38:13;;;;;;;7.30;5.78;;;;;;;29.42;37.54;101071.44;6245818;23;20051;-77
2023/06/08 10:40:49;;;;;;;8.43;5.68;;;;;;;29.76;37.51;101066.59;6220337;23;20087;-79
2023/06/08 10:43:22;;;;;;;7.80;6.30;;;;;;;29.99;34.99;101064.91;6245979;23;20421;-79
2023/06/08 10:45:48;;;;;;;5.88;5.03;;;;;;;30.22;37.25;101057.63;6194937;23;20444;-78
2023/06/08 10:48:16;;;;;;;5.90;5.13;;;;;;;30.83;32.86;101058.63;6194764;23;20038;-80
2023/06/08 10:50:42;;;;;;;10.70;6.40;;;;;;;30.74;34.61;101046.53;6195166;23;20416;-78
2023/06/08 10:53:08;;;;;;;8.75;5.13;;;;;;;31.18;33.58;101061.06;6194976;23;20011;-78
2023/06/08 10:55:35;;;;;;;8.32;6.95;;;;;;;30.81;33.29;101052.56;6195019;23;20015;-76
2023/06/08 10:58:06;;;;;;;5.05;4.50;;;;;;;29.56;35.69;101041.91;6194979;23;20061;-77
2023/06/08 11:00:33;;;;;;;8.00;5.85;;;;;;;28.65;37.06;101023.19;6195366;23;20012;-77
2023/06/08 11:03:09;;;;;;;13.98;6.00;;;;;;;28.72;38.95;101047.78;6219773;23;20091;-76
2023/06/08 11:05:36;;;;;;;8.00;5.28;;;;;;;28.79;37.43;101041.88;6245144;23;20016;-77
2023/06/08 11:08:03;;;;;;;7.13;4.93;;;;;;;28.24;38.97;101042.06;6219930;23;20004;-77
2023/06/08 11:10:33;;;;;;;6.80;5.40;;;;;;;27.92;39.35;101043.38;6195110;23;20012;-77
2023/06/08 11:13:05;;;;;;;6.93;5.38;;;;;;;27.68;40.34;101045.09;6171259;23;20016;-77
2023/06/08 11:15:33;;;;;;;10.05;5.80;;;;;;;27.77;41.17;101035.13;6194978;23;20000;-77
2023/06/08 11:17:59;;;;;;;7.95;4.88;;;;;;;27.73;40.10;101042.31;6194776;23;20008;-79
2023/06/08 11:20:25;;;;;;;8.45;6.03;;;;;;;27.24;40.35;101032.84;6194956;23;20015;-80
2023/06/08 11:22:52;;;;;;;8.23;5.18;;;;;;;26.83;40.66;101023.81;6194875;23;20340;-77